createdAt,value
2019-01-14T00:00:58.857Z,0.70
2019-01-14T00:03:39.946Z,0.60
2019-01-14T00:06:21.114Z,0.60
2019-01-14T00:09:01.793Z,0.70
2019-01-14T00:17:12.424Z,0.70
2019-01-14T00:19:53.848Z,0.70
2019-01-14T00:22:34.552Z,0.70
2019-01-14T00:25:16.054Z,0.70
2019-01-14T00:27:57.717Z,0.70
2019-01-14T00:30:39.099Z,0.70
2019-01-14T00:33:20.640Z,0.60
2019-01-14T00:36:02.292Z,0.60
2019-01-14T00:38:43.179Z,0.60
2019-01-14T00:41:24.772Z,0.60
2019-01-14T00:44:06.395Z,0.67
2019-01-14T00:46:47.766Z,0.60
2019-01-14T00:49:28.344Z,0.50
2019-01-14T00:52:09.977Z,0.60
2019-01-14T00:58:09.669Z,0.93
2019-01-14T01:00:51.216Z,0.57
2019-01-14T01:03:32.488Z,0.80
2019-01-14T01:06:13.777Z,0.90
2019-01-14T01:08:55.206Z,0.80
2019-01-14T01:11:36.674Z,1.00
2019-01-14T01:14:18.178Z,0.60
2019-01-14T01:16:59.730Z,0.60
2019-01-14T01:19:41.313Z,0.70
2019-01-14T01:22:22.033Z,0.60
2019-01-14T01:25:03.611Z,0.60
2019-01-14T01:27:44.824Z,0.70
2019-01-14T01:30:26.422Z,0.60
2019-01-14T01:33:07.214Z,0.80
2019-01-14T01:35:48.770Z,1.00
2019-01-14T01:38:30.189Z,0.77
2019-01-14T01:41:11.747Z,0.97
2019-01-14T01:46:58.533Z,1.00
2019-01-14T01:49:40.094Z,0.67
2019-01-14T01:52:20.918Z,0.60
2019-01-14T01:55:01.630Z,0.70
2019-01-14T02:00:48.510Z,0.60
2019-01-14T02:03:29.708Z,0.57
2019-01-14T02:06:10.446Z,0.60
2019-01-14T02:08:51.257Z,0.50
2019-01-14T02:11:32.814Z,0.60
2019-01-14T02:14:14.157Z,0.60
2019-01-14T02:20:14.349Z,0.50
2019-01-14T02:22:56.273Z,0.70
2019-01-14T02:25:37.077Z,0.80
2019-01-14T02:28:18.565Z,0.90
2019-01-14T02:30:59.199Z,0.80
2019-01-14T02:33:39.893Z,1.00
2019-01-14T02:36:21.061Z,1.00
2019-01-14T02:39:02.957Z,1.20
2019-01-14T02:41:44.618Z,1.90
2019-01-14T02:44:25.326Z,1.63
2019-01-14T02:47:06.869Z,1.67
2019-01-14T02:49:48.495Z,1.10
2019-01-14T02:52:29.754Z,1.40
2019-01-14T02:55:11.168Z,1.20
2019-01-14T02:57:51.996Z,1.40
2019-01-14T03:00:33.273Z,1.57
2019-01-14T03:03:14.600Z,1.50
2019-01-14T03:05:56.964Z,1.20
2019-01-14T03:08:37.858Z,1.23
2019-01-14T03:11:18.753Z,1.27
2019-01-14T03:14:00.095Z,1.67
2019-01-14T03:16:40.772Z,1.10
2019-01-14T03:19:22.266Z,1.00
2019-01-14T03:22:03.758Z,1.57
2019-01-14T03:24:44.471Z,1.50
2019-01-14T03:27:25.073Z,1.47
2019-01-14T03:30:06.629Z,1.57
2019-01-14T03:32:48.159Z,1.20
2019-01-14T03:35:29.615Z,1.70
2019-01-14T03:38:10.981Z,2.00
2019-01-14T03:40:51.797Z,1.13
2019-01-14T03:43:32.418Z,1.00
2019-01-14T03:46:13.990Z,1.07
2019-01-14T03:48:54.776Z,1.00
2019-01-14T03:51:36.160Z,0.90
2019-01-14T03:54:17.675Z,1.10
2019-01-14T03:56:59.221Z,1.33
2019-01-14T03:59:40.807Z,1.40
2019-01-14T04:02:21.754Z,1.50
2019-01-14T04:05:03.204Z,1.33
2019-01-14T04:07:43.841Z,0.90
2019-01-14T04:10:25.154Z,1.30
2019-01-14T04:13:05.790Z,1.30
2019-01-14T04:15:47.223Z,1.30
2019-01-14T04:18:27.797Z,1.80
2019-01-14T04:21:08.565Z,0.87
2019-01-14T04:23:49.318Z,1.03
2019-01-14T04:26:30.751Z,1.00
2019-01-14T04:29:12.319Z,1.20
2019-01-14T04:31:53.045Z,1.07
2019-01-14T04:34:33.850Z,1.37
2019-01-14T04:37:21.475Z,0.80
2019-01-14T04:39:58.037Z,1.00
2019-01-14T04:42:39.473Z,0.97
2019-01-14T04:45:20.350Z,1.23
2019-01-14T04:48:01.978Z,1.30
2019-01-14T04:50:43.332Z,1.30
2019-01-14T04:53:24.125Z,1.43
2019-01-14T04:56:05.508Z,1.10
2019-01-14T04:58:46.256Z,1.57
2019-01-14T05:01:26.869Z,1.10
2019-01-14T05:04:07.617Z,0.97
2019-01-14T05:06:48.925Z,1.60
2019-01-14T05:09:29.631Z,1.17
2019-01-14T05:12:10.304Z,0.90
2019-01-14T05:14:51.795Z,0.97
2019-01-14T05:17:32.482Z,1.17
2019-01-14T05:20:13.094Z,1.00
2019-01-14T05:22:53.758Z,1.40
2019-01-14T05:25:35.218Z,0.80
2019-01-14T05:28:16.619Z,1.50
2019-01-14T05:30:58.046Z,1.17
2019-01-14T05:33:38.889Z,1.50
2019-01-14T05:36:20.285Z,1.40
2019-01-14T05:39:01.820Z,1.80
2019-01-14T05:41:42.509Z,1.10
2019-01-14T05:44:24.122Z,1.50
2019-01-14T05:47:05.604Z,1.10
2019-01-14T05:49:47.178Z,1.60
2019-01-14T05:52:28.664Z,1.00
2019-01-14T05:55:10.308Z,1.37
2019-01-14T05:57:51.048Z,1.23
2019-01-14T06:00:37.548Z,1.83
2019-01-14T06:03:18.898Z,1.03
2019-01-14T06:06:00.321Z,1.50
2019-01-14T06:08:41.654Z,1.00
2019-01-14T06:11:23.211Z,1.33
2019-01-14T06:14:04.000Z,1.10
2019-01-14T06:16:44.666Z,1.33
2019-01-14T06:19:26.358Z,1.30
2019-01-14T06:22:07.525Z,1.20
2019-01-14T06:24:49.052Z,1.73
2019-01-14T06:27:30.350Z,1.50
2019-01-14T06:30:11.822Z,1.53
2019-01-14T06:32:52.452Z,1.53
2019-01-14T06:35:33.185Z,1.73
2019-01-14T06:38:14.606Z,1.30
2019-01-14T06:40:55.785Z,1.30
2019-01-14T06:43:37.310Z,2.60
2019-01-14T06:46:17.882Z,1.43
2019-01-14T06:48:59.429Z,1.73
2019-01-14T06:51:40.250Z,1.60
2019-01-14T06:54:21.692Z,1.50
2019-01-14T06:57:03.277Z,1.67
2019-01-14T06:59:43.944Z,1.33
2019-01-14T07:02:24.636Z,1.50
2019-01-14T07:05:06.299Z,1.57
2019-01-14T07:07:47.668Z,1.90
2019-01-14T07:10:28.360Z,1.53
2019-01-14T07:13:09.076Z,1.73
2019-01-14T07:15:49.809Z,1.50
2019-01-14T07:18:30.580Z,2.00
2019-01-14T07:21:12.168Z,1.50
2019-01-14T07:23:53.029Z,1.40
2019-01-14T07:26:34.676Z,1.63
2019-01-14T07:29:15.612Z,1.43
2019-01-14T07:31:56.823Z,1.40
2019-01-14T07:34:37.673Z,1.57
2019-01-14T07:37:18.334Z,1.20
2019-01-14T07:39:59.742Z,2.20
2019-01-14T07:42:41.241Z,1.70
2019-01-14T07:45:21.876Z,1.77
2019-01-14T07:48:03.185Z,1.90
2019-01-14T07:50:43.937Z,1.77
2019-01-14T07:53:24.569Z,1.53
2019-01-14T07:56:05.370Z,1.37
2019-01-14T07:58:47.143Z,1.23
2019-01-14T08:01:28.435Z,1.23
2019-01-14T08:06:51.636Z,1.70
2019-01-14T08:09:32.701Z,2.20
2019-01-14T08:12:13.389Z,1.80
2019-01-14T08:14:54.690Z,1.90
2019-01-14T08:17:35.406Z,1.87
2019-01-14T08:20:16.864Z,1.77
2019-01-14T08:22:58.464Z,1.70
2019-01-14T08:25:39.316Z,1.77
2019-01-14T08:28:20.137Z,1.50
2019-01-14T08:31:00.791Z,1.50
2019-01-14T08:33:41.720Z,1.53
2019-01-14T08:36:23.272Z,1.40
2019-01-14T08:39:04.692Z,1.63
2019-01-14T08:44:46.432Z,1.67
2019-01-14T08:47:28.181Z,1.67
2019-01-14T08:50:09.576Z,1.77
2019-01-14T08:52:51.177Z,1.60
2019-01-14T08:55:32.767Z,1.73
2019-01-14T08:58:14.301Z,2.20
2019-01-14T09:00:55.811Z,2.00
2019-01-14T09:03:36.787Z,1.90
2019-01-14T09:06:17.615Z,1.70
2019-01-14T09:08:59.174Z,2.10
2019-01-14T09:11:40.257Z,1.30
2019-01-14T09:14:21.313Z,1.60
2019-01-14T09:17:02.705Z,1.17
2019-01-14T09:19:44.242Z,1.80
2019-01-14T09:22:24.889Z,1.30
2019-01-14T09:25:05.706Z,2.30
2019-01-14T09:27:47.214Z,1.93
2019-01-14T09:30:28.042Z,2.03
2019-01-14T09:33:09.578Z,2.10
2019-01-14T09:35:51.109Z,1.67
2019-01-14T09:38:35.813Z,1.87
2019-01-14T09:41:14.801Z,2.03
2019-01-14T09:43:56.156Z,2.00
2019-01-14T09:46:36.898Z,1.80
2019-01-14T09:49:18.413Z,2.13
2019-01-14T09:51:59.111Z,1.80
2019-01-14T09:54:40.581Z,1.83
2019-01-14T09:57:21.362Z,1.73
2019-01-14T10:00:02.109Z,1.80
2019-01-14T10:02:42.927Z,2.50
2019-01-14T10:05:24.349Z,2.03
2019-01-14T10:08:05.891Z,1.60
2019-01-14T10:10:47.297Z,1.50
2019-01-14T10:13:28.648Z,1.17
2019-01-14T10:16:10.020Z,2.17
2019-01-14T10:18:51.622Z,1.60
2019-01-14T10:21:32.665Z,2.13
2019-01-14T10:24:14.114Z,1.97
2019-01-14T10:27:47.233Z,2.13
2019-01-14T10:30:18.079Z,2.17
2019-01-14T10:32:47.455Z,1.77
2019-01-14T10:35:16.863Z,2.20
2019-01-14T10:37:46.353Z,1.67
2019-01-14T10:40:16.212Z,1.37
2019-01-14T10:42:45.672Z,2.53
2019-01-14T10:45:17.723Z,1.70
2019-01-14T10:47:47.203Z,2.00
2019-01-14T10:50:16.954Z,2.03
2019-01-14T10:52:46.829Z,1.80
2019-01-14T10:55:16.895Z,1.90
2019-01-14T10:57:46.670Z,2.20
2019-01-14T11:00:18.654Z,1.60
2019-01-14T11:02:48.406Z,1.53
2019-01-14T11:05:22.117Z,2.00
2019-01-14T11:07:51.694Z,1.40
2019-01-14T11:10:21.121Z,1.33
2019-01-14T11:12:50.729Z,1.67
2019-01-14T11:15:20.384Z,1.90
2019-01-14T11:17:49.937Z,1.90
2019-01-14T11:20:22.189Z,2.03
2019-01-14T11:22:51.642Z,2.03
2019-01-14T11:25:21.320Z,1.60
2019-01-14T11:27:50.748Z,2.10
2019-01-14T11:30:25.532Z,2.07
2019-01-14T11:32:54.943Z,1.53
2019-01-14T11:35:24.396Z,2.83
2019-01-14T11:37:53.834Z,2.37
2019-01-14T11:40:25.921Z,1.67
2019-01-14T11:42:55.338Z,2.27
2019-01-14T11:45:24.865Z,2.40
2019-01-14T11:47:54.296Z,1.87
2019-01-14T11:50:23.736Z,2.30
2019-01-14T11:52:53.152Z,3.10
2019-01-14T11:55:22.600Z,1.63
2019-01-14T11:57:52.010Z,1.80
2019-01-14T12:00:23.792Z,1.77
2019-01-14T12:02:53.489Z,1.80
2019-01-14T12:05:23.356Z,2.37
2019-01-14T12:07:52.786Z,1.57
2019-01-14T12:10:22.224Z,2.73
2019-01-14T12:12:51.637Z,2.10
2019-01-14T12:15:23.406Z,3.70
2019-01-14T12:17:52.843Z,2.27
2019-01-14T12:20:22.293Z,1.50
2019-01-14T12:22:51.716Z,2.00
2019-01-14T12:25:21.169Z,2.30
2019-01-14T12:27:50.613Z,2.07
2019-01-14T12:30:26.775Z,1.20
2019-01-14T12:32:56.184Z,1.47
2019-01-14T12:35:25.645Z,1.93
2019-01-14T12:37:55.058Z,2.20
2019-01-14T12:40:25.271Z,1.60
2019-01-14T12:42:54.889Z,1.60
2019-01-14T12:45:24.721Z,1.77
2019-01-14T12:47:54.294Z,1.63
2019-01-14T12:50:24.074Z,1.80
2019-01-14T12:52:53.511Z,2.03
2019-01-14T12:55:24.405Z,2.10
2019-01-14T12:57:53.838Z,2.90
2019-01-14T13:00:25.019Z,2.80
2019-01-14T13:02:58.302Z,2.60
2019-01-14T13:05:26.579Z,2.57
2019-01-14T13:07:55.998Z,2.20
2019-01-14T13:10:25.531Z,1.90
2019-01-14T13:12:54.969Z,2.20
2019-01-14T13:15:26.315Z,1.30
2019-01-14T13:17:55.770Z,2.53
2019-01-14T13:20:25.212Z,2.30
2019-01-14T13:22:54.859Z,1.97
2019-01-14T13:25:24.384Z,2.60
2019-01-14T13:27:53.827Z,1.80
2019-01-14T13:30:25.602Z,2.10
2019-01-14T13:32:55.352Z,2.33
2019-01-14T13:35:24.770Z,2.00
2019-01-14T13:37:57.214Z,2.63
2019-01-14T13:40:29.277Z,2.17
2019-01-14T13:42:58.964Z,1.00
2019-01-14T13:45:30.426Z,0.70
2019-01-14T13:48:00.117Z,1.00
2019-01-14T13:50:29.991Z,0.80
2019-01-14T13:52:59.528Z,0.87
2019-01-14T13:55:29.132Z,1.00
2019-01-14T13:58:00.139Z,0.87
2019-01-14T14:00:29.854Z,1.17
2019-01-14T14:02:59.460Z,0.70
2019-01-14T14:05:28.974Z,1.00
2019-01-14T14:07:58.417Z,0.97
2019-01-14T14:10:33.178Z,0.67
2019-01-14T14:13:02.639Z,0.70
2019-01-14T14:15:32.375Z,0.67
2019-01-14T14:18:02.625Z,0.70
2019-01-14T14:20:32.933Z,1.00
2019-01-14T14:23:02.961Z,0.70
2019-01-14T14:25:32.856Z,0.97
2019-01-14T14:28:02.972Z,1.20
2019-01-14T14:30:38.013Z,0.90
2019-01-14T14:33:08.174Z,0.70
2019-01-14T14:35:38.358Z,0.67
2019-01-14T14:38:09.585Z,0.70
2019-01-14T14:40:39.669Z,0.80
2019-01-14T14:43:09.704Z,0.80
2019-01-14T14:45:39.659Z,1.10
2019-01-14T14:48:10.057Z,1.00
2019-01-14T14:50:40.286Z,1.00
2019-01-14T14:53:10.272Z,0.97
2019-01-14T14:55:40.511Z,1.20
2019-01-14T14:58:10.800Z,0.97
2019-01-14T15:00:40.854Z,1.00
2019-01-14T15:03:10.927Z,1.07
2019-01-14T15:05:40.668Z,0.60
2019-01-14T15:08:10.584Z,0.80
2019-01-14T15:10:40.574Z,0.70
2019-01-14T15:13:10.671Z,0.70
2019-01-14T15:15:40.993Z,0.70
2019-01-14T15:18:11.619Z,0.70
2019-01-14T15:20:41.564Z,0.60
2019-01-14T15:23:11.707Z,0.87
2019-01-14T15:25:41.888Z,1.00
2019-01-14T15:28:11.987Z,1.20
2019-01-14T15:30:42.146Z,0.90
2019-01-14T15:33:13.511Z,1.37
2019-01-14T15:35:43.876Z,0.87
2019-01-14T15:38:14.077Z,0.90
2019-01-14T15:40:44.094Z,1.27
2019-01-14T15:43:14.159Z,1.37
2019-01-14T15:45:44.886Z,1.40
2019-01-14T15:48:14.355Z,1.10
2019-01-14T15:50:43.803Z,0.90
2019-01-14T15:53:13.225Z,0.90
2019-01-14T15:55:42.674Z,0.70
2019-01-14T15:58:12.094Z,1.00
2019-01-14T16:00:41.548Z,0.90
2019-01-14T16:03:10.948Z,0.90
2019-01-14T16:05:40.401Z,0.90
2019-01-14T16:08:09.833Z,1.10
2019-01-14T16:10:39.303Z,1.10
2019-01-14T16:13:08.751Z,1.00
2019-01-14T16:15:38.190Z,0.87
2019-01-14T16:18:07.609Z,1.17
2019-01-14T16:20:37.116Z,1.23
2019-01-14T16:23:06.534Z,1.10
2019-01-14T16:25:35.993Z,1.37
2019-01-14T16:28:05.409Z,1.40
2019-01-14T16:30:34.845Z,1.17
2019-01-14T16:33:04.265Z,1.17
2019-01-14T16:35:33.737Z,1.50
2019-01-14T16:38:03.137Z,1.20
2019-01-14T16:40:32.605Z,1.40
2019-01-14T16:43:02.141Z,1.47
2019-01-14T16:45:31.555Z,1.07
2019-01-14T16:48:01.108Z,1.10
2019-01-14T16:50:30.531Z,1.43
2019-01-14T16:53:00.141Z,0.90
2019-01-14T16:55:46.273Z,1.80
2019-01-14T16:58:15.725Z,1.30
2019-01-14T17:00:45.166Z,1.50
2019-01-14T17:03:14.710Z,1.40
2019-01-14T17:05:44.133Z,1.27
2019-01-14T17:08:13.583Z,1.23
2019-01-14T17:10:43.013Z,1.40
2019-01-14T17:13:12.469Z,1.77
2019-01-14T17:15:41.886Z,1.37
2019-01-14T17:18:11.342Z,1.70
2019-01-14T17:20:40.747Z,1.40
2019-01-14T17:23:10.198Z,1.30
2019-01-14T17:25:39.625Z,1.90
2019-01-14T17:28:09.283Z,1.37
2019-01-14T17:30:38.705Z,1.17
2019-01-14T17:33:08.258Z,1.80
2019-01-14T17:35:37.668Z,1.50
2019-01-14T17:38:07.109Z,1.90
2019-01-14T17:40:36.599Z,1.20
2019-01-14T17:43:06.158Z,1.90
2019-01-14T17:45:35.640Z,1.13
2019-01-14T17:48:05.419Z,1.70
2019-01-14T17:50:34.931Z,1.00
2019-01-14T17:53:04.722Z,1.47
2019-01-14T17:55:34.145Z,1.50
2019-01-14T17:58:03.581Z,1.50
2019-01-14T18:00:33.026Z,2.10
2019-01-14T18:03:02.454Z,1.50
2019-01-14T18:05:31.895Z,1.43
2019-01-14T18:08:01.350Z,1.80
2019-01-14T18:10:30.802Z,1.70
2019-01-14T18:13:00.227Z,1.80
2019-01-14T18:15:29.677Z,1.97
2019-01-14T18:17:59.102Z,1.97
2019-01-14T18:20:28.553Z,1.63
2019-01-14T18:22:57.972Z,1.80
2019-01-14T18:25:27.437Z,2.40
2019-01-14T18:27:56.854Z,2.10
2019-01-14T18:30:26.460Z,3.03
2019-01-14T18:32:55.906Z,1.40
2019-01-14T18:35:25.360Z,1.80
2019-01-14T18:37:54.878Z,1.87
2019-01-14T18:40:24.348Z,1.80
2019-01-14T18:42:53.750Z,1.60
2019-01-14T18:45:23.209Z,1.80
2019-01-14T18:47:52.610Z,1.77
2019-01-14T18:50:23.379Z,1.60
2019-01-14T18:52:52.894Z,2.03
2019-01-14T18:55:22.369Z,2.23
2019-01-14T18:57:51.789Z,1.60
2019-01-14T19:00:23.335Z,2.20
2019-01-14T19:02:53.107Z,1.70
2019-01-14T19:05:22.609Z,2.30
2019-01-14T19:07:52.027Z,2.00
2019-01-14T19:10:21.475Z,2.10
2019-01-14T19:12:50.921Z,2.40
2019-01-14T19:15:21.425Z,2.37
2019-01-14T19:17:52.134Z,1.80
2019-01-14T19:20:26.570Z,2.13
2019-01-14T19:22:56.457Z,2.17
2019-01-14T19:25:25.964Z,2.70
2019-01-14T19:27:55.369Z,2.07
2019-01-14T19:30:25.054Z,2.60
2019-01-14T19:32:54.874Z,1.97
2019-01-14T19:35:24.286Z,2.60
2019-01-14T19:37:53.745Z,2.57
2019-01-14T19:40:23.345Z,2.40
2019-01-14T19:42:53.181Z,2.83
2019-01-14T19:45:22.940Z,3.00
2019-01-14T19:47:52.428Z,2.80
2019-01-14T19:50:25.233Z,3.20
2019-01-14T19:52:56.064Z,2.93
2019-01-14T19:55:25.557Z,3.43
2019-01-14T19:57:55.334Z,2.73
2019-01-14T20:00:28.429Z,3.13
2019-01-14T20:02:58.141Z,2.53
2019-01-14T20:05:27.560Z,2.37
2019-01-14T20:07:57.268Z,3.23
2019-01-14T20:10:26.761Z,2.33
2019-01-14T20:12:56.897Z,2.60
2019-01-14T20:15:26.330Z,3.20
2019-01-14T20:17:55.823Z,2.73
2019-01-14T20:20:25.272Z,2.23
2019-01-14T20:22:54.749Z,2.93
2019-01-14T20:25:25.304Z,2.20
2019-01-14T20:27:54.773Z,3.23
2019-01-14T20:30:25.401Z,3.43
2019-01-14T20:32:54.915Z,3.17
2019-01-14T20:35:24.442Z,3.70
2019-01-14T20:37:55.726Z,3.40
2019-01-14T20:40:25.295Z,3.50
2019-01-14T20:42:54.963Z,2.20
2019-01-14T20:45:24.496Z,3.60
2019-01-14T20:47:55.217Z,3.30
2019-01-14T20:50:24.690Z,3.80
2019-01-14T20:52:54.151Z,3.93
2019-01-14T20:55:23.656Z,4.00
2019-01-14T20:57:53.395Z,2.50
2019-01-14T21:00:25.264Z,3.60
2019-01-14T21:02:54.996Z,4.17
2019-01-14T21:05:25.560Z,4.13
2019-01-14T21:07:55.298Z,3.87
2019-01-14T21:10:24.782Z,4.00
2019-01-14T21:12:54.256Z,3.90
2019-01-14T21:15:23.839Z,3.87
2019-01-14T21:17:53.341Z,3.53
2019-01-14T21:20:24.683Z,3.90
2019-01-14T21:22:55.145Z,2.77
2019-01-14T21:25:25.451Z,2.57
2019-01-14T21:27:54.964Z,2.60
2019-01-14T21:30:26.467Z,2.63
2019-01-14T21:32:55.927Z,2.00
2019-01-14T21:35:25.627Z,1.93
2019-01-14T21:37:57.286Z,3.40
2019-01-14T21:40:26.941Z,2.43
2019-01-14T21:42:56.433Z,2.57
2019-01-14T21:45:26.288Z,3.13
2019-01-14T21:47:55.754Z,3.53
2019-01-14T21:50:25.287Z,3.20
2019-01-14T21:52:54.779Z,3.30
2019-01-14T21:55:26.252Z,3.17
2019-01-14T21:57:55.723Z,2.90
2019-01-14T22:00:25.819Z,3.20
2019-01-14T22:02:55.262Z,3.00
2019-01-14T22:05:26.194Z,3.40
2019-01-14T22:07:55.706Z,3.50
2019-01-14T22:10:27.550Z,4.10
2019-01-14T22:12:57.187Z,2.90
2019-01-14T22:15:26.698Z,4.03
2019-01-14T22:17:56.138Z,4.20
2019-01-14T22:20:27.602Z,4.20
2019-01-14T22:22:57.274Z,3.47
2019-01-14T22:25:26.741Z,4.27
2019-01-14T22:27:56.299Z,3.70
2019-01-14T22:30:31.344Z,4.33
2019-01-14T22:33:00.813Z,3.50
2019-01-14T22:35:32.061Z,3.07
2019-01-14T22:38:01.645Z,4.07
2019-01-14T22:40:31.487Z,3.60
2019-01-14T22:43:00.910Z,4.30
2019-01-14T22:45:30.335Z,3.23
2019-01-14T22:47:59.936Z,3.70
2019-01-14T22:50:29.394Z,3.60
2019-01-14T22:52:59.305Z,3.57
2019-01-14T22:55:28.754Z,4.03
2019-01-14T22:57:58.235Z,3.30
2019-01-14T23:01:03.157Z,3.20
2019-01-14T23:03:34.801Z,3.50
2019-01-14T23:06:04.385Z,3.83
2019-01-14T23:08:34.028Z,4.07
2019-01-14T23:11:04.528Z,3.73
2019-01-14T23:13:34.014Z,3.73
2019-01-14T23:16:03.477Z,3.30
2019-01-14T23:18:32.930Z,3.57
2019-01-14T23:21:02.467Z,3.10
2019-01-14T23:23:31.899Z,3.47
2019-01-14T23:26:01.460Z,3.57
2019-01-14T23:28:30.920Z,3.73
2019-01-14T23:31:00.344Z,3.87
2019-01-14T23:33:29.792Z,3.90
2019-01-14T23:35:59.230Z,3.57
2019-01-14T23:38:28.683Z,3.40
2019-01-14T23:40:58.132Z,3.07
2019-01-14T23:43:27.578Z,3.10
2019-01-14T23:45:57.006Z,3.20
2019-01-14T23:48:26.461Z,3.10
2019-01-14T23:50:55.877Z,3.00
2019-01-14T23:53:25.352Z,2.33
2019-01-14T23:55:54.759Z,2.90
2019-01-14T23:58:24.194Z,2.47
